Time;durP1;ratioP1;P1;durP2;ratioP2;P2;SDS_P1;SDS_P2;PMS_P1;PMS_P2;Temp;Humidity;BMP_temperature;BMP_pressure;BME280_temperature;BME280_humidity;BME280_pressure;Samples;Min_cycle;Max_cycle;Signal;HPM_P1;HPM_P2
2021/09/29 00:01:11;;;;;;;6.38;3.70;;;;;;;11.67;93.18;98947.47;4987918;28;20121;-71
2021/09/29 00:03:37;;;;;;;6.22;3.40;;;;;;;11.79;93.18;98959.38;4986447;28;20058;-71
2021/09/29 00:06:03;;;;;;;6.10;3.88;;;;;;;11.83;92.67;98963.31;4983640;28;20062;-71
2021/09/29 00:08:28;;;;;;;6.45;3.53;;;;;;;12.01;93.08;98998.81;4982503;28;20413;-71
2021/09/29 00:10:54;;;;;;;3.50;2.95;;;;;;;12.02;93.36;98991.50;4989526;28;20030;-71
2021/09/29 00:13:23;;;;;;;6.13;2.85;;;;;;;11.98;93.70;98982.97;4992429;28;20039;-71
2021/09/29 00:15:48;;;;;;;;;;;;;;;12.03;94.24;98972.31;4995185;28;20076;-72
2021/09/29 00:18:14;;;;;;;6.15;2.88;;;;;;;12.01;94.71;98977.13;4987584;28;19953;-71
2021/09/29 00:20:39;;;;;;;4.00;2.85;;;;;;;11.99;95.14;98987.34;4989218;28;20023;-71
2021/09/29 00:23:04;;;;;;;5.70;3.10;;;;;;;11.88;94.58;98971.69;4990607;28;20185;-72
2021/09/29 00:25:29;;;;;;;7.38;3.40;;;;;;;12.08;95.06;98985.28;4993011;28;20022;-72
2021/09/29 00:27:55;;;;;;;6.15;3.30;;;;;;;11.93;93.88;98974.63;4993506;28;20030;-71
2021/09/29 00:30:21;;;;;;;6.30;3.80;;;;;;;11.96;94.12;98985.03;4975767;28;20026;-72
2021/09/29 00:32:46;;;;;;;5.88;3.92;;;;;;;11.86;94.58;98968.34;4991239;28;20053;-71
2021/09/29 00:35:14;;;;;;;6.28;3.53;;;;;;;11.98;93.03;98982.97;4988900;28;20085;-72
2021/09/29 00:37:41;;;;;;;5.30;3.90;;;;;;;12.02;93.82;98992.34;4976204;28;20033;-71
2021/09/29 00:40:08;;;;;;;7.60;4.13;;;;;;;11.94;93.98;98965.44;4984143;28;20502;-73
2021/09/29 00:42:34;;;;;;;7.72;3.65;;;;;;;11.99;93.11;98959.38;4991985;28;20026;-72
2021/09/29 00:45:00;;;;;;;6.47;3.97;;;;;;;12.16;91.76;98984.22;4993662;28;20362;-72
2021/09/29 00:47:27;;;;;;;5.47;3.72;;;;;;;12.23;90.61;98987.75;4978689;28;20031;-71
2021/09/29 00:49:53;;;;;;;6.70;3.65;;;;;;;12.46;89.09;98980.00;4973889;28;20113;-71
2021/09/29 00:52:18;;;;;;;6.43;3.78;;;;;;;12.42;88.49;98978.78;4977596;28;20031;-72
2021/09/29 00:54:43;;;;;;;7.65;4.20;;;;;;;12.33;90.76;98980.03;4985758;28;20395;-71
2021/09/29 00:57:09;;;;;;;6.18;4.07;;;;;;;12.25;92.00;98967.50;4991981;28;20080;-71
2021/09/29 00:59:35;;;;;;;7.80;4.00;;;;;;;12.23;92.15;98955.19;4990390;28;20023;-71
2021/09/29 01:02:01;;;;;;;6.97;4.28;;;;;;;12.33;92.31;98974.59;4988419;28;20058;-72
2021/09/29 01:04:27;;;;;;;7.07;4.15;;;;;;;12.35;91.21;98967.09;4990491;28;20769;-72
2021/09/29 01:07:10;;;;;;;5.35;3.45;;;;;;;12.41;91.54;98960.81;4991970;28;20109;-72
2021/09/29 01:09:47;;;;;;;6.57;3.85;;;;;;;12.35;91.62;98947.28;4992762;28;20035;-71
2021/09/29 01:12:35;;;;;;;7.35;4.03;;;;;;;12.44;93.21;98957.69;4993215;28;20026;-72
2021/09/29 01:15:11;;;;;;;6.07;4.43;;;;;;;12.36;94.26;98957.06;4990148;28;20092;-72
2021/09/29 01:17:44;;;;;;;5.55;4.18;;;;;;;12.33;94.11;98954.78;4992578;28;20030;-71
2021/09/29 01:20:22;;;;;;;5.65;4.15;;;;;;;12.34;91.59;98970.84;4981733;28;20042;-72
2021/09/29 01:22:56;;;;;;;6.50;4.20;;;;;;;12.26;92.01;98960.19;4978958;28;20022;-72
2021/09/29 01:25:44;;;;;;;6.72;4.38;;;;;;;12.03;93.12;98939.78;4994516;28;20026;-73
2021/09/29 01:28:10;;;;;;;6.97;4.05;;;;;;;12.04;93.43;98944.16;4995349;28;20034;-72
2021/09/29 01:30:37;;;;;;;6.65;4.25;;;;;;;12.18;93.01;98964.00;4982888;28;20035;-72
2021/09/29 01:33:03;;;;;;;6.28;3.67;;;;;;;12.16;92.26;98948.97;4991136;28;20117;-72
2021/09/29 01:35:28;;;;;;;12.07;4.03;;;;;;;12.33;89.76;98966.47;4986476;28;20499;-73
2021/09/29 01:37:54;;;;;;;5.13;3.65;;;;;;;12.43;88.31;98955.19;4984889;28;20050;-72
2021/09/29 01:40:19;;;;;;;4.82;3.80;;;;;;;12.32;88.53;98929.53;4981732;28;20026;-72
2021/09/29 01:42:45;;;;;;;6.32;3.95;;;;;;;12.55;89.02;98966.22;4995341;28;20030;-72
2021/09/29 01:45:11;;;;;;;6.28;3.70;;;;;;;12.46;90.27;98936.59;4996017;28;20497;-72
2021/09/29 01:47:36;;;;;;;6.55;4.13;;;;;;;12.32;90.57;98940.38;4992070;28;20544;-72
2021/09/29 01:50:03;;;;;;;6.53;4.20;;;;;;;12.41;90.81;98963.53;4993855;28;20049;-72
2021/09/29 01:52:31;;;;;;;6.25;3.55;;;;;;;12.27;92.01;98949.16;4986748;28;20030;-72
2021/09/29 01:54:57;;;;;;;5.97;4.00;;;;;;;12.39;91.61;98960.22;4996199;28;20019;-72
2021/09/29 01:57:24;;;;;;;5.15;4.47;;;;;;;12.25;91.56;98936.84;4981311;28;20034;-72
2021/09/29 01:59:50;;;;;;;7.68;4.32;;;;;;;12.39;90.91;98962.91;4991101;28;20037;-72
2021/09/29 02:02:15;;;;;;;6.57;4.53;;;;;;;12.34;90.60;98961.84;4983124;28;20026;-72
2021/09/29 02:04:49;;;;;;;7.80;4.00;;;;;;;12.27;91.68;98957.28;4980335;28;20393;-72
2021/09/29 02:07:15;;;;;;;5.88;4.45;;;;;;;12.15;90.77;98934.53;4990399;28;20488;-72
2021/09/29 02:09:40;;;;;;;5.18;4.13;;;;;;;12.23;91.39;98960.63;4991864;28;20080;-72
2021/09/29 02:12:06;;;;;;;8.32;5.40;;;;;;;12.14;91.55;98960.00;4989789;28;20031;-72
2021/09/29 02:14:31;;;;;;;6.15;4.57;;;;;;;12.01;92.07;98949.19;4989306;28;20026;-72
2021/09/29 02:16:56;;;;;;;9.65;4.60;;;;;;;11.88;92.04;98947.28;4993137;28;20054;-71
2021/09/29 02:19:23;;;;;;;8.18;5.22;;;;;;;12.01;93.34;98957.31;4992792;28;20107;-70
2021/09/29 02:21:48;;;;;;;6.53;4.40;;;;;;;11.85;92.46;98942.25;4985766;28;20038;-71
2021/09/29 02:24:14;;;;;;;10.13;4.45;;;;;;;11.78;93.10;98923.28;4995092;28;20097;-71
2021/09/29 02:26:39;;;;;;;9.73;4.43;;;;;;;11.96;92.65;98962.53;4995265;28;20481;-71
2021/09/29 02:29:06;;;;;;;8.20;4.68;;;;;;;11.94;93.25;98959.19;4977460;28;20038;-71
2021/09/29 02:31:32;;;;;;;6.22;4.80;;;;;;;12.03;92.89;98975.03;4977645;28;20027;-71
2021/09/29 02:33:58;;;;;;;10.00;4.90;;;;;;;11.87;92.36;98932.09;4976196;28;20027;-71
2021/09/29 02:36:23;;;;;;;7.88;4.53;;;;;;;12.10;92.86;98963.34;4985702;28;20105;-71
2021/09/29 02:38:51;;;;;;;7.88;4.70;;;;;;;12.15;92.21;98971.69;4976143;28;20134;-71
2021/09/29 02:41:18;;;;;;;7.73;5.00;;;;;;;12.18;91.68;98965.84;4993077;28;20022;-71
2021/09/29 02:43:43;;;;;;;8.57;4.45;;;;;;;12.29;91.48;98984.22;4994362;28;20115;-71
2021/09/29 02:46:09;;;;;;;9.77;4.78;;;;;;;12.25;90.98;98964.78;4991709;28;20421;-71
2021/09/29 02:48:34;;;;;;;10.40;4.90;;;;;;;12.40;91.24;98980.84;4980137;28;20043;-71
2021/09/29 02:50:59;;;;;;;8.18;4.70;;;;;;;12.42;90.94;98977.94;4982905;28;20469;-71
2021/09/29 02:53:31;;;;;;;6.15;4.60;;;;;;;12.46;90.98;98985.44;4993662;28;20044;-71
2021/09/29 02:56:00;;;;;;;8.15;4.55;;;;;;;12.45;91.34;99005.47;4992031;28;20435;-72
2021/09/29 02:58:26;;;;;;;7.25;5.28;;;;;;;12.43;91.84;98991.28;4981307;28;20034;-71
2021/09/29 03:00:53;;;;;;;8.82;5.10;;;;;;;12.39;92.85;98983.78;4977587;28;20038;-71
2021/09/29 03:03:20;;;;;;;6.78;4.70;;;;;;;12.26;92.65;98977.34;4999021;28;20109;-71
2021/09/29 03:05:45;;;;;;;7.03;5.13;;;;;;;12.28;93.03;98979.81;4994725;28;20044;-71
2021/09/29 03:08:11;;;;;;;11.38;4.80;;;;;;;12.35;92.21;98996.94;4992331;28;20026;-71
2021/09/29 03:10:38;;;;;;;7.38;4.95;;;;;;;12.38;92.88;98998.38;4980626;28;20023;-71
2021/09/29 03:13:13;;;;;;;6.43;4.32;;;;;;;12.42;92.97;99005.09;4985520;28;20464;-71
2021/09/29 03:15:39;;;;;;;9.10;5.03;;;;;;;12.35;92.05;99004.25;4996745;28;20699;-71
2021/09/29 03:18:05;;;;;;;8.50;4.95;;;;;;;12.38;91.73;99009.25;4994183;28;20495;-71
2021/09/29 03:20:31;;;;;;;6.80;5.20;;;;;;;12.46;90.17;99012.56;4995207;28;20027;-71
2021/09/29 03:22:57;;;;;;;6.63;4.90;;;;;;;12.40;90.96;99008.00;4995374;28;20036;-71
2021/09/29 03:25:25;;;;;;;10.13;5.15;;;;;;;12.14;91.53;98970.88;4991418;28;20030;-71
2021/09/29 03:27:50;;;;;;;7.82;4.78;;;;;;;12.29;92.23;99008.63;4976976;28;20089;-72
2021/09/29 03:30:16;;;;;;;8.18;4.72;;;;;;;12.31;91.81;99019.25;4990905;28;20026;-71
2021/09/29 03:32:42;;;;;;;11.23;5.25;;;;;;;12.34;91.79;99018.84;4994782;28;20030;-72
2021/09/29 03:35:09;;;;;;;8.40;4.90;;;;;;;12.13;91.87;98984.63;4989307;28;20026;-71
2021/09/29 03:37:35;;;;;;;7.18;5.32;;;;;;;12.13;91.92;99001.75;4991990;28;20036;-73
2021/09/29 03:40:00;;;;;;;8.73;5.60;;;;;;;12.11;92.25;99011.97;4991514;28;20121;-72
2021/09/29 03:42:25;;;;;;;10.85;5.25;;;;;;;12.00;93.52;99013.44;4988862;28;20429;-76
2021/09/29 03:44:52;;;;;;;10.80;5.75;;;;;;;12.02;93.70;99033.00;4993245;28;20476;-76
2021/09/29 03:47:17;;;;;;;7.95;5.68;;;;;;;12.13;92.24;99017.16;4992978;28;20022;-76
2021/09/29 03:49:42;;;;;;;9.25;6.22;;;;;;;12.20;92.30;99015.28;5084316;23;20041;-75
2021/09/29 03:52:08;;;;;;;8.18;5.82;;;;;;;12.35;91.88;99021.34;5033521;28;20029;-75
2021/09/29 03:54:33;;;;;;;10.07;6.45;;;;;;;12.27;92.38;99018.84;5032992;28;20021;-75
2021/09/29 03:57:01;;;;;;;11.85;7.22;;;;;;;12.18;92.75;99015.53;5026141;28;20022;-77
2021/09/29 03:59:27;;;;;;;8.93;5.93;;;;;;;12.18;92.49;99014.66;5034140;28;20021;-76
2021/09/29 04:01:52;;;;;;;11.70;6.10;;;;;;;12.17;92.64;99007.59;5037803;28;20422;-71
2021/09/29 04:04:18;;;;;;;12.00;6.45;;;;;;;12.21;92.85;99025.13;5031510;28;20025;-73
2021/09/29 04:06:45;;;;;;;9.65;6.07;;;;;;;12.07;93.03;99019.66;5033286;28;20479;-75
2021/09/29 04:09:10;;;;;;;8.98;5.90;;;;;;;12.10;93.08;99025.72;5031578;28;20041;-75
2021/09/29 04:11:36;;;;;;;9.75;6.50;;;;;;;11.95;93.64;99021.34;5029889;28;20687;-76
2021/09/29 04:14:02;;;;;;;10.82;6.20;;;;;;;12.00;94.19;99028.88;5032527;28;20056;-73
2021/09/29 04:16:28;;;;;;;9.80;6.07;;;;;;;11.82;94.42;99016.69;5030848;28;20491;-75
2021/09/29 04:18:53;;;;;;;10.32;6.47;;;;;;;12.12;93.81;99027.19;5029387;28;20033;-73
2021/09/29 04:21:18;;;;;;;11.98;6.57;;;;;;;12.05;93.15;99037.19;5027534;28;20025;-73
2021/09/29 04:23:45;;;;;;;12.55;7.10;;;;;;;11.74;94.67;99008.78;5035287;28;20088;-77
2021/09/29 04:26:10;;;;;;;11.95;7.43;;;;;;;11.89;95.12;99027.56;5032464;28;20078;-73
2021/09/29 04:28:35;;;;;;;12.73;6.70;;;;;;;11.76;95.73;99032.94;5032793;28;20488;-69
2021/09/29 04:31:02;;;;;;;15.57;6.50;;;;;;;11.65;95.72;99020.00;5033271;28;20498;-73
2021/09/29 04:33:28;;;;;;;11.73;6.80;;;;;;;11.66;95.86;99032.50;5032812;28;20093;-73
2021/09/29 04:35:54;;;;;;;8.95;6.07;;;;;;;11.59;96.71;99036.03;5032592;28;20108;-77
2021/09/29 04:38:20;;;;;;;12.85;6.78;;;;;;;11.53;97.43;99033.31;5033079;28;20443;-72
2021/09/29 04:40:46;;;;;;;14.27;7.60;;;;;;;11.59;97.58;99019.78;5032617;28;20025;-75
2021/09/29 04:43:11;;;;;;;10.98;7.28;;;;;;;11.33;96.57;98984.50;5031210;28;20041;-75
2021/09/29 04:45:37;;;;;;;11.93;6.97;;;;;;;11.52;96.89;99021.63;5032722;28;20092;-76
2021/09/29 04:48:04;;;;;;;12.82;6.80;;;;;;;11.75;96.51;99048.38;5036990;28;20111;-79
2021/09/29 04:50:29;;;;;;;8.80;6.15;;;;;;;11.72;96.71;99050.69;5033740;28;20017;-75
2021/09/29 04:52:55;;;;;;;9.52;6.32;;;;;;;11.48;97.30;99033.09;5035281;28;20086;-74
2021/09/29 04:55:20;;;;;;;8.95;6.70;;;;;;;11.51;97.81;99052.47;5021392;28;20029;-70
2021/09/29 04:57:46;;;;;;;9.27;6.07;;;;;;;11.41;97.96;99052.03;5033108;28;20025;-70
2021/09/29 05:00:12;;;;;;;11.80;6.53;;;;;;;11.37;98.76;99057.03;5031514;28;20076;-69
2021/09/29 05:02:43;;;;;;;12.32;7.82;;;;;;;11.06;99.14;99022.31;5019251;28;20073;-75
2021/09/29 05:05:08;;;;;;;10.55;7.15;;;;;;;11.35;98.79;99047.44;5023554;28;20033;-73
2021/09/29 05:07:34;;;;;;;11.95;6.80;;;;;;;11.28;98.86;99049.25;5016768;28;20057;-73
2021/09/29 05:10:00;;;;;;;12.10;7.65;;;;;;;11.16;98.15;99039.03;5034239;28;20060;-72
2021/09/29 05:12:31;;;;;;;9.13;6.28;;;;;;;11.26;98.82;99070.28;5035724;28;20036;-73
2021/09/29 05:14:58;;;;;;;11.32;7.15;;;;;;;11.11;99.79;99054.19;5030473;28;20061;-75
2021/09/29 05:17:24;;;;;;;11.05;7.05;;;;;;;11.16;99.89;99065.22;5027607;28;20484;-75
2021/09/29 05:19:50;;;;;;;11.52;7.40;;;;;;;11.17;100.00;99069.63;5029853;28;20025;-76
2021/09/29 05:22:15;;;;;;;12.40;7.43;;;;;;;11.07;100.00;99032.09;5035988;28;20036;-74
2021/09/29 05:24:41;;;;;;;11.35;6.57;;;;;;;11.12;99.44;99042.31;5032484;28;20071;-76
2021/09/29 05:27:07;;;;;;;9.70;7.18;;;;;;;11.29;99.20;99059.06;5032061;28;20033;-72
2021/09/29 05:29:34;;;;;;;12.70;7.28;;;;;;;11.06;99.46;99033.13;5034303;28;20491;-76
2021/09/29 05:32:00;;;;;;;10.55;6.88;;;;;;;11.25;100.00;99064.03;5036114;28;20029;-72
2021/09/29 05:34:25;;;;;;;10.85;7.38;;;;;;;11.12;99.72;99053.97;5034024;28;20537;-73
2021/09/29 05:36:51;;;;;;;11.73;6.68;;;;;;;11.15;100.00;99067.13;5032095;28;20037;-69
2021/09/29 05:39:17;;;;;;;14.00;6.88;;;;;;;11.12;100.00;99072.09;5036070;28;20037;-71
2021/09/29 05:41:42;;;;;;;9.38;6.60;;;;;;;11.00;100.00;99077.22;5034701;28;20116;-70
2021/09/29 05:44:08;;;;;;;11.88;6.82;;;;;;;10.74;100.00;99051.69;5035564;28;20104;-76
2021/09/29 05:46:34;;;;;;;11.10;7.10;;;;;;;10.90;100.00;99066.78;5035153;28;20028;-76
2021/09/29 05:49:00;;;;;;;14.63;7.00;;;;;;;10.77;100.00;99063.13;5032710;28;20537;-71
2021/09/29 05:51:25;;;;;;;15.00;7.78;;;;;;;10.81;100.00;99076.09;5036338;28;20018;-74
2021/09/29 05:53:51;;;;;;;11.93;7.00;;;;;;;10.81;100.00;99073.38;5051157;28;20238;-75
2021/09/29 05:56:16;;;;;;;11.55;7.18;;;;;;;11.16;100.00;99076.06;5033126;28;20064;-75
2021/09/29 05:58:42;;;;;;;10.60;6.72;;;;;;;12.35;93.87;99075.63;5036444;28;20475;-75
2021/09/29 06:01:08;;;;;;;8.38;6.13;;;;;;;13.58;86.81;99080.41;5035220;28;20083;-76
2021/09/29 06:03:34;;;;;;;10.38;6.00;;;;;;;15.12;77.21;99053.72;5032398;28;20112;-75
2021/09/29 06:05:59;;;;;;;10.82;5.03;;;;;;;16.92;67.20;99053.84;5035563;28;20116;-77
2021/09/29 06:08:24;;;;;;;10.23;4.78;;;;;;;17.45;65.17;99055.56;5049526;28;20021;-72
2021/09/29 06:10:50;;;;;;;11.40;5.30;;;;;;;18.42;61.35;99057.41;5030376;28;20036;-71
2021/09/29 06:13:15;;;;;;;10.13;4.43;;;;;;;19.20;58.24;99068.47;5034992;28;20557;-73
2021/09/29 06:15:42;;;;;;;8.52;4.63;;;;;;;20.15;54.54;99071.84;5034370;28;20083;-74
2021/09/29 06:18:13;;;;;;;6.75;4.55;;;;;;;21.34;51.92;99068.91;5035228;28;20025;-72
2021/09/29 06:20:43;;;;;;;10.95;5.60;;;;;;;22.09;49.31;99059.31;5032951;28;20021;-79
2021/09/29 06:23:08;;;;;;;10.40;6.15;;;;;;;22.32;47.59;99059.91;5035056;28;20028;-77
2021/09/29 06:25:33;;;;;;;11.75;5.35;;;;;;;21.81;48.90;99073.56;5034680;28;20107;-75
2021/09/29 06:27:59;;;;;;;9.80;5.82;;;;;;;22.50;46.75;99067.63;5034808;28;20108;-76
2021/09/29 06:30:25;;;;;;;8.27;5.13;;;;;;;23.01;45.95;99072.34;5033614;28;20026;-75
2021/09/29 06:32:50;;;;;;;9.32;4.93;;;;;;;22.57;46.95;99061.88;5035227;28;20072;-77
2021/09/29 06:35:16;;;;;;;6.97;5.05;;;;;;;22.33;47.12;99072.59;5033623;28;20074;-76
2021/09/29 06:37:44;;;;;;;7.97;3.85;;;;;;;23.88;44.21;99071.25;5031794;28;20025;-75
2021/09/29 06:40:17;;;;;;;6.07;3.65;;;;;;;24.13;43.92;99084.94;5035201;28;20075;-73
2021/09/29 06:42:43;;;;;;;7.50;3.45;;;;;;;23.10;45.63;99078.13;5030726;28;20043;-72
2021/09/29 06:45:10;;;;;;;5.43;3.78;;;;;;;20.25;52.32;99093.94;5033850;28;20418;-74
2021/09/29 06:47:38;;;;;;;5.30;3.30;;;;;;;18.26;58.29;99100.13;5034520;28;20045;-74
2021/09/29 06:50:05;;;;;;;5.93;3.57;;;;;;;17.18;62.25;99088.88;5033553;28;20049;-70
2021/09/29 06:52:31;;;;;;;11.07;4.00;;;;;;;16.27;65.87;99112.91;5032357;28;20279;-67
2021/09/29 06:54:56;;;;;;;6.13;4.07;;;;;;;15.94;69.13;99103.25;5032155;28;20033;-67
2021/09/29 06:57:22;;;;;;;7.57;4.05;;;;;;;16.65;66.89;99100.72;5033737;28;20033;-67
2021/09/29 06:59:47;;;;;;;5.43;3.50;;;;;;;19.30;58.28;99087.81;5034183;28;20472;-67
2021/09/29 07:02:13;;;;;;;4.75;3.40;;;;;;;21.70;50.44;99074.63;5028053;28;20026;-67
2021/09/29 07:04:38;;;;;;;7.47;3.40;;;;;;;22.18;48.83;99080.81;5021338;28;20569;-67
2021/09/29 07:07:03;;;;;;;16.80;2.67;;;;;;;22.76;46.54;99062.94;5023264;28;20045;-67
2021/09/29 07:09:29;;;;;;;4.80;2.75;;;;;;;23.72;44.33;99089.84;5019674;28;20017;-67
2021/09/29 07:11:54;;;;;;;5.85;2.90;;;;;;;22.98;45.75;99081.19;5024738;28;20037;-69
2021/09/29 07:14:20;;;;;;;9.38;3.10;;;;;;;24.48;42.89;99070.06;5024294;28;20025;-76
2021/09/29 07:16:46;;;;;;;7.10;2.50;;;;;;;25.66;40.05;99073.63;5026400;28;20017;-75
2021/09/29 07:19:12;;;;;;;10.02;3.35;;;;;;;24.14;42.29;99078.28;5029930;28;20740;-76
2021/09/29 07:21:37;;;;;;;6.07;2.75;;;;;;;23.21;44.42;99068.69;5034356;28;20095;-76
2021/09/29 07:24:03;;;;;;;6.97;2.53;;;;;;;22.25;46.60;99075.91;5031728;28;20025;-77
2021/09/29 07:26:28;;;;;;;11.20;3.00;;;;;;;21.08;50.21;99090.78;5033928;28;20033;-74
2021/09/29 07:28:53;;;;;;;11.48;2.90;;;;;;;20.41;52.07;99092.16;5032191;28;20021;-72
2021/09/29 07:31:19;;;;;;;6.68;2.45;;;;;;;18.75;56.85;99091.38;5033104;28;20080;-73
2021/09/29 07:33:45;;;;;;;5.88;2.70;;;;;;;18.90;56.85;99088.91;5032203;28;20033;-75
2021/09/29 07:36:11;;;;;;;5.75;2.50;;;;;;;20.74;51.29;99084.75;5032450;28;20104;-73
2021/09/29 07:38:37;;;;;;;11.65;2.00;;;;;;;22.83;46.39;99076.47;5031074;28;20034;-74
2021/09/29 07:41:02;;;;;;;6.25;1.83;;;;;;;24.63;41.95;99085.72;5032683;28;20033;-76
2021/09/29 07:43:27;;;;;;;7.20;1.85;;;;;;;25.54;39.20;99074.88;5033500;28;20033;-76
2021/09/29 07:45:53;;;;;;;3.50;1.45;;;;;;;26.42;37.84;99072.56;5032157;28;20037;-71
2021/09/29 07:48:18;;;;;;;6.72;1.60;;;;;;;26.87;37.18;99066.59;5031735;28;20494;-73
2021/09/29 07:50:44;;;;;;;6.10;1.55;;;;;;;26.24;37.53;99052.03;5030630;28;20030;-71
2021/09/29 07:53:11;;;;;;;4.85;1.52;;;;;;;27.11;36.21;99069.22;5028266;28;20033;-71
2021/09/29 07:55:36;;;;;;;3.22;1.40;;;;;;;26.82;36.36;99077.78;5032235;28;20068;-77
2021/09/29 07:58:02;;;;;;;4.28;1.20;;;;;;;27.72;35.06;99062.47;5033196;28;20122;-79
2021/09/29 08:00:27;;;;;;;3.65;1.10;;;;;;;27.73;34.75;99074.41;5030765;28;20025;-74
2021/09/29 08:02:53;;;;;;;2.97;1.10;;;;;;;28.09;34.84;99068.94;5032302;28;20033;-73
2021/09/29 08:05:20;;;;;;;2.78;1.20;;;;;;;27.29;34.85;99082.22;5033716;28;20117;-71
2021/09/29 08:07:47;;;;;;;2.45;1.00;;;;;;;24.59;39.43;99087.41;5032493;28;20108;-75
2021/09/29 08:10:13;;;;;;;3.55;1.20;;;;;;;22.63;44.05;99082.81;5030136;28;20029;-75
2021/09/29 08:12:38;;;;;;;4.82;1.25;;;;;;;20.50;48.50;99098.00;5030588;28;20117;-70
2021/09/29 08:15:11;;;;;;;2.58;0.98;;;;;;;22.01;46.28;99090.16;5032456;28;20037;-76
2021/09/29 08:17:37;;;;;;;2.38;0.82;;;;;;;23.69;41.49;99093.97;5029119;28;20033;-69
2021/09/29 08:20:03;;;;;;;3.25;1.00;;;;;;;25.99;37.80;99072.66;5020169;28;20075;-69
2021/09/29 08:22:28;;;;;;;2.55;0.98;;;;;;;27.18;35.28;99054.97;5031292;28;20025;-78
2021/09/29 08:33:07;;;;;;;4.60;0.75;;;;;;;28.73;31.83;99070.78;5031436;28;20096;-72
2021/09/29 08:35:38;;;;;;;4.75;1.15;;;;;;;29.96;30.28;99064.66;5040201;28;20434;-77
2021/09/29 08:38:14;;;;;;;6.88;1.30;;;;;;;29.12;31.79;99072.03;5026549;28;20113;-77
2021/09/29 08:40:51;;;;;;;2.53;0.63;;;;;;;28.92;30.98;99065.81;5031839;28;20018;-76
2021/09/29 08:43:34;;;;;;;3.20;0.70;;;;;;;29.26;30.81;99072.75;5030614;28;20017;-76
2021/09/29 08:46:05;;;;;;;3.67;0.80;;;;;;;30.26;29.65;99074.91;5029885;28;20025;-79
2021/09/29 08:48:56;;;;;;;2.70;0.60;;;;;;;30.52;28.80;99048.94;5032869;28;20025;-76
2021/09/29 09:18:10;;;;;;;2.38;0.63;;;;;;;28.33;30.26;99071.44;5030580;28;20075;-73
2021/09/29 09:20:41;;;;;;;2.38;0.80;;;;;;;25.29;34.63;99075.97;5031034;28;21923;-71
2021/09/29 09:23:06;;;;;;;1.58;0.55;;;;;;;24.58;35.59;99071.94;5030441;28;20037;-71
2021/09/29 09:25:38;;;;;;;1.85;0.82;;;;;;;23.78;38.06;99072.94;5030371;28;20083;-71
2021/09/29 09:28:05;;;;;;;3.45;0.70;;;;;;;25.27;36.32;99072.69;5029754;28;20119;-74
2021/09/29 09:30:34;;;;;;;2.30;0.80;;;;;;;24.66;36.34;99073.25;5029911;28;20060;-71
2021/09/29 09:33:00;;;;;;;3.05;0.75;;;;;;;26.24;33.46;99029.03;5030459;28;20033;-71
2021/09/29 09:35:30;;;;;;;1.17;0.70;;;;;;;26.88;32.87;99052.41;5030113;28;20492;-71
2021/09/29 09:37:59;;;;;;;2.08;0.80;;;;;;;25.20;35.28;99066.66;5026439;28;20029;-71
2021/09/29 09:40:31;;;;;;;2.40;0.73;;;;;;;22.83;40.33;99048.88;5029776;28;20025;-71
2021/09/29 09:42:57;;;;;;;5.10;0.80;;;;;;;21.99;41.90;99069.47;5030033;28;20545;-70
2021/09/29 09:45:44;;;;;;;2.40;0.70;;;;;;;21.73;42.62;99065.81;5027536;28;20116;-70
2021/09/29 09:48:21;;;;;;;2.00;0.70;;;;;;;20.94;44.48;99073.09;5030468;28;20119;-70
2021/09/29 09:50:46;;;;;;;4.07;0.65;;;;;;;21.06;43.19;99061.88;5032391;28;20021;-70
2021/09/29 09:53:13;;;;;;;4.78;1.00;;;;;;;20.66;43.73;99058.56;5031086;28;20091;-71
2021/09/29 09:55:38;;;;;;;2.83;0.70;;;;;;;20.07;45.08;99050.34;5031633;28;20037;-70
2021/09/29 09:58:03;;;;;;;4.22;0.68;;;;;;;19.64;46.06;99060.25;5030965;28;20109;-70
2021/09/29 10:00:29;;;;;;;7.15;0.75;;;;;;;19.61;47.17;99064.34;5031958;28;20025;-71
2021/09/29 10:02:55;;;;;;;6.35;0.80;;;;;;;19.13;47.94;99057.69;5032011;28;20025;-70
2021/09/29 10:05:23;;;;;;;2.70;0.50;;;;;;;19.03;48.13;99058.38;5030099;28;20021;-70
2021/09/29 10:07:49;;;;;;;2.92;0.80;;;;;;;19.27;47.71;99060.91;5031310;28;20048;-70
2021/09/29 10:27:20;;;;;;;2.22;0.80;;;;;;;19.87;47.31;99034.47;5023239;28;20446;-70
2021/09/29 10:29:52;;;;;;;2.53;0.52;;;;;;;20.95;45.14;99036.22;5032996;28;20021;-72
2021/09/29 10:32:31;;;;;;;1.98;0.50;;;;;;;21.04;44.82;99042.91;5033454;28;20036;-71
2021/09/29 10:35:13;;;;;;;4.47;0.70;;;;;;;21.41;43.13;99039.28;5027011;28;20036;-74
2021/09/29 10:43:25;;;;;;;;;;;;;;;22.30;41.29;99029.06;5028956;28;20051;-74
2021/09/29 10:46:13;;;;;;;4.07;0.60;;;;;;;22.15;41.18;99023.50;5031871;28;19913;-73
2021/09/29 11:03:58;;;;;;;4.65;0.82;;;;;;;20.58;44.99;99034.31;5026660;28;20040;-67
2021/09/29 11:30:16;;;;;;;2.90;0.50;;;;;;;20.69;49.23;99000.31;5027441;28;20040;-72
2021/09/29 11:32:51;;;;;;;2.70;0.60;;;;;;;22.03;46.18;99010.81;5028458;28;20454;-71
2021/09/29 11:35:33;;;;;;;1.85;0.45;;;;;;;23.90;42.73;98991.66;5029153;28;20105;-73
2021/09/29 12:08:18;;;;;;;1.70;0.50;;;;;;;19.90;48.10;98957.88;5031703;28;20446;-69
2021/09/29 12:10:58;;;;;;;2.22;0.43;;;;;;;20.01;48.32;98947.81;5031564;28;20021;-75
2021/09/29 12:13:42;;;;;;;0.98;0.35;;;;;;;19.40;48.39;98967.22;5031224;28;20026;-72
2021/09/29 12:16:07;;;;;;;1.13;0.45;;;;;;;20.80;47.76;98948.94;5014639;28;20029;-72
2021/09/29 12:18:34;;;;;;;1.38;0.30;;;;;;;21.18;44.70;98956.03;5030179;28;20086;-73
2021/09/29 12:21:00;;;;;;;2.88;0.77;;;;;;;20.73;44.80;98943.72;5032485;28;20065;-70
2021/09/29 12:23:25;;;;;;;3.13;0.20;;;;;;;20.56;45.43;98946.63;5032648;28;20427;-72
2021/09/29 12:25:57;;;;;;;3.65;0.25;;;;;;;20.32;46.07;98962.63;5032441;28;20029;-72
2021/09/29 12:31:10;;;;;;;2.05;0.30;;;;;;;19.88;46.83;98959.25;5031389;28;20048;-74
2021/09/29 12:36:34;;;;;;;0.93;0.30;;;;;;;19.58;46.57;98957.00;5031481;28;20117;-74
2021/09/29 12:39:02;;;;;;;3.40;0.30;;;;;;;19.66;47.54;98959.28;5031373;28;20025;-75
2021/09/29 12:41:28;;;;;;;2.22;0.30;;;;;;;19.58;46.54;98957.81;5032039;28;20103;-72
2021/09/29 12:44:04;;;;;;;1.50;0.50;;;;;;;19.67;47.12;98959.03;5031800;28;20108;-71
2021/09/29 12:46:30;;;;;;;1.50;0.38;;;;;;;19.56;47.76;98957.25;5030862;28;20411;-73
2021/09/29 12:48:55;;;;;;;9.95;1.02;;;;;;;19.35;48.47;98942.47;5029959;28;20022;-73
2021/09/29 12:51:22;;;;;;;1.40;0.43;;;;;;;19.29;49.26;98921.56;5030222;28;20021;-74
2021/09/29 12:53:57;;;;;;;2.20;0.35;;;;;;;18.96;48.78;98939.00;5030303;28;20517;-75
2021/09/29 12:56:23;;;;;;;0.43;0.25;;;;;;;19.00;51.22;98968.41;5031913;28;20064;-70
2021/09/29 12:58:49;;;;;;;2.83;0.45;;;;;;;17.87;57.69;98981.44;5028798;28;20120;-77
2021/09/29 13:01:15;;;;;;;3.88;0.60;;;;;;;17.55;62.43;98989.25;5032677;28;20022;-71
2021/09/29 13:03:41;;;;;;;6.15;0.60;;;;;;;17.37;63.09;98976.59;5023424;28;20594;-78
2021/09/29 13:06:08;;;;;;;1.23;0.38;;;;;;;18.16;61.61;98991.25;5031467;28;20025;-76
2021/09/29 13:08:34;;;;;;;1.58;0.40;;;;;;;19.84;61.02;98961.69;5031368;28;20055;-73
2021/09/29 13:10:59;;;;;;;3.30;0.30;;;;;;;22.13;53.41;98956.78;5031469;28;20017;-75
2021/09/29 13:13:26;;;;;;;1.88;0.40;;;;;;;23.71;49.04;98970.19;5031715;28;20029;-72
2021/09/29 13:15:54;;;;;;;1.10;0.30;;;;;;;23.79;47.64;98977.09;5031448;28;20036;-72
2021/09/29 13:36:43;;;;;;;1.85;0.50;;;;;;;18.36;57.59;99011.81;5022588;28;20040;-74
2021/09/29 13:39:14;;;;;;;5.55;0.80;;;;;;;17.98;60.07;99015.28;5034580;28;20029;-75
2021/09/29 13:41:41;;;;;;;3.53;0.90;;;;;;;17.94;59.99;99043.13;5035492;28;20383;-76
2021/09/29 13:44:07;;;;;;;1.70;0.40;;;;;;;17.86;59.17;99039.97;5036537;28;20537;-76
2021/09/29 13:46:33;;;;;;;1.65;0.10;;;;;;;17.35;57.76;99061.66;5038919;28;20103;-75
2021/09/29 13:48:59;;;;;;;2.15;0.20;;;;;;;16.95;58.63;99065.16;5035004;28;20037;-71
2021/09/29 13:51:26;;;;;;;4.97;0.73;;;;;;;16.77;60.78;99068.81;5033123;28;20021;-74
2021/09/29 13:53:53;;;;;;;1.23;0.38;;;;;;;15.93;69.41;99087.97;5034785;28;20030;-74
2021/09/29 13:56:21;;;;;;;2.17;0.30;;;;;;;15.30;76.92;99142.81;5036606;28;20028;-71
2021/09/29 13:58:54;;;;;;;1.17;0.28;;;;;;;14.41;82.00;99133.94;5036628;28;20029;-72
2021/09/29 14:01:59;;;;;;;1.52;0.20;;;;;;;13.97;83.73;99143.81;5035095;28;20021;-71
2021/09/29 14:29:11;;;;;;;1.23;0.30;;;;;;;13.54;87.94;99193.34;5031122;28;20032;-70